Archival Weather

Salzburg

Salzburg, Austria (LOWS)

Report from: Thursday, September 21, 2023 8:50 PM CEST
Current time: Sunday, July 14, 2024 1:40 PM CEST

Current weather – Weather history – Daily summaries
Weather forecast

Temperature18.0°C (64.4°F)
Dew point14.0°C (57.2°F)
Winds 4 kts (2.1 m/s, 4.6 mph) South-Southeast (150°)
Clouds Sky clear
Altimeter29.59 in.Hg (1002 mB)
Relative humidity77 %
Density altitude956 ft. (291 m)
Remarks Ceiling and visibility OK
No significant changes expected in the next two hours
Flight conditions Visual Meteorological Conditions
Raw dataLOWS 211850Z 15004KT CAVOK 18/14 Q1002 NOSIG
An error has occurred. This application may no longer respond until reloaded. Reload 🗙